Time;durP1;ratioP1;P1;durP2;ratioP2;P2;SDS_P1;SDS_P2;PMS_P1;PMS_P2;Temp;Humidity;BMP_temperature;BMP_pressure;BME280_temperature;BME280_humidity;BME280_pressure;Samples;Min_cycle;Max_cycle;Signal;HPM_P1;HPM_P2
2020/01/23 00:00:30;;;;;;;60.6;19.5;;;;;;;-2.27;77.05664;96832.78;;;;
2020/01/23 00:01:35;;;;;;;50.59999;17.75;;;;;;;-2.3;77.29883;96813.26;;;;
2020/01/23 00:02:36;;;;;;;50.59999;17.75;;;;;;;-2.3;77.29883;96813.26;;;;
2020/01/23 00:03:41;;;;;;;50.59999;17.75;;;;;;;-2.3;77.29883;96813.26;;;;
2020/01/23 00:04:42;;;;;;;50.59999;17.75;;;;;;;-2.3;77.29883;96813.26;;;;
2020/01/23 00:05:43;;;;;;;50.59999;17.75;;;;;;;-2.3;77.29883;96813.26;;;;
2020/01/23 00:06:45;;;;;;;50.59999;17.75;;;;;;;-2.3;77.29883;96813.26;;;;
2020/01/23 00:07:51;;;;;;;50.59999;17.75;;;;;;;-2.3;77.29883;96813.26;;;;
2020/01/23 00:08:52;;;;;;;50.59999;17.75;;;;;;;-2.3;77.29883;96813.26;;;;
2020/01/23 00:09:52;;;;;;;50.59999;17.75;;;;;;;-2.3;77.29883;96813.26;;;;
2020/01/23 00:11:07;;;;;;;50.59999;17.75;;;;;;;-2.3;77.29883;96813.26;;;;
2020/01/23 00:12:32;;;;;;;48.35;16.25;;;;;;;-2.39;77.53027;96802.48;;;;
2020/01/23 00:14:08;;;;;;;48.35;16.25;;;;;;;-2.39;77.53027;96802.48;;;;
2020/01/23 00:15:14;;;;;;;48.35;16.25;;;;;;;-2.39;77.53027;96802.48;;;;
2020/01/23 00:16:14;;;;;;;48.35;16.25;;;;;;;-2.39;77.53027;96802.48;;;;
2020/01/23 00:17:26;;;;;;;48.35;16.25;;;;;;;-2.39;77.53027;96802.48;;;;
2020/01/23 00:18:27;;;;;;;48.35;16.25;;;;;;;-2.39;77.53027;96802.48;;;;
2020/01/23 00:19:28;;;;;;;48.35;16.25;;;;;;;-2.39;77.53027;96802.48;;;;
2020/01/23 00:20:49;;;;;;;48.35;16.25;;;;;;;-2.39;77.53027;96802.48;;;;
2020/01/23 00:24:24;;;;;;;46.05;17.1;;;;;;;-2.42;77.76563;96796.55;;;;
2020/01/23 00:25:26;;;;;;;46.05;17.1;;;;;;;-2.42;77.76563;96796.55;;;;
2020/01/23 00:26:55;;;;;;;46.05;17.1;;;;;;;-2.42;77.76563;96796.55;;;;
2020/01/23 00:27:58;;;;;;;46.05;17.1;;;;;;;-2.42;77.76563;96796.55;;;;
2020/01/23 00:29:02;;;;;;;46.05;17.1;;;;;;;-2.42;77.76563;96796.55;;;;
2020/01/23 00:30:03;;;;;;;46.05;17.1;;;;;;;-2.42;77.76563;96796.55;;;;
2020/01/23 00:31:21;;;;;;;46.05;17.1;;;;;;;-2.42;77.76563;96796.55;;;;
2020/01/23 00:33:08;;;;;;;46.05;17.1;;;;;;;-2.42;77.76563;96796.55;;;;
2020/01/23 00:39:26;;;;;;;45.45;16.25;;;;;;;-2.48;77.59668;96780.33;;;;
2020/01/23 00:40:38;;;;;;;45.45;16.25;;;;;;;-2.48;77.59668;96780.33;;;;
2020/01/23 00:41:39;;;;;;;45.45;16.25;;;;;;;-2.48;77.59668;96780.33;;;;
2020/01/23 00:42:39;;;;;;;45.45;16.25;;;;;;;-2.48;77.59668;96780.33;;;;
2020/01/23 00:43:40;;;;;;;45.45;16.25;;;;;;;-2.48;77.59668;96780.33;;;;
2020/01/23 00:44:41;;;;;;;46.2;15.85;;;;;;;-2.53;77.50684;96767.46;;;;
2020/01/23 00:45:42;;;;;;;46.2;15.85;;;;;;;-2.53;77.50684;96767.46;;;;
2020/01/23 00:46:54;;;;;;;46.2;15.85;;;;;;;-2.53;77.50684;96767.46;;;;
2020/01/23 00:47:54;;;;;;;46.2;15.85;;;;;;;-2.53;77.50684;96767.46;;;;
2020/01/23 00:48:55;;;;;;;46.2;15.85;;;;;;;-2.53;77.50684;96767.46;;;;
2020/01/23 00:49:57;;;;;;;46.2;15.85;;;;;;;-2.53;77.50684;96767.46;;;;
2020/01/23 00:50:58;;;;;;;46.2;15.85;;;;;;;-2.53;77.50684;96767.46;;;;
2020/01/23 00:52:02;;;;;;;46.2;15.85;;;;;;;-2.53;77.50684;96767.46;;;;
2020/01/23 00:53:18;;;;;;;46.2;15.85;;;;;;;-2.53;77.50684;96767.46;;;;
2020/01/23 00:54:19;;;;;;;46.2;15.85;;;;;;;-2.53;77.50684;96767.46;;;;
2020/01/23 00:55:19;;;;;;;45.05;16.2;;;;;;;-2.59;77.2041;96760.41;;;;
2020/01/23 00:56:27;;;;;;;45.05;16.2;;;;;;;-2.59;77.2041;96760.41;;;;
2020/01/23 00:57:27;;;;;;;45.05;16.2;;;;;;;-2.59;77.2041;96760.41;;;;
2020/01/23 00:58:30;;;;;;;45.05;16.2;;;;;;;-2.59;77.2041;96760.41;;;;
2020/01/23 00:59:31;;;;;;;45.05;16.2;;;;;;;-2.59;77.2041;96760.41;;;;
2020/01/23 01:00:31;;;;;;;45.05;16.2;;;;;;;-2.59;77.2041;96760.41;;;;
2020/01/23 01:05:46;;;;;;;49.25;15.8;;;;;;;-2.48;77.37012;96757.35;;;;
2020/01/23 01:08:36;;;;;;;49.25;15.8;;;;;;;-2.48;77.37012;96757.35;;;;
2020/01/23 01:09:41;;;;;;;49.25;15.8;;;;;;;-2.48;77.37012;96757.35;;;;
2020/01/23 01:10:54;;;;;;;49.25;15.8;;;;;;;-2.48;77.37012;96757.35;;;;
2020/01/23 01:11:55;;;;;;;49.25;15.8;;;;;;;-2.48;77.37012;96757.35;;;;
2020/01/23 01:12:55;;;;;;;49.25;15.8;;;;;;;-2.48;77.37012;96757.35;;;;
2020/01/23 01:14:10;;;;;;;49.25;15.8;;;;;;;-2.48;77.37012;96757.35;;;;
2020/01/23 01:15:13;;;;;;;49.25;15.8;;;;;;;-2.48;77.37012;96757.35;;;;
2020/01/23 01:16:39;;;;;;;41.95;15.15;;;;;;;-2.44;77.19043;96756.58;;;;
2020/01/23 01:17:49;;;;;;;41.95;15.15;;;;;;;-2.44;77.19043;96756.58;;;;
2020/01/23 01:18:50;;;;;;;49.05;18.3;;;;;;;-2.37;77.37988;96755.13;;;;
2020/01/23 01:19:56;;;;;;;49.05;18.3;;;;;;;-2.37;77.37988;96755.13;;;;
2020/01/23 01:21:45;;;;;;;49.05;18.3;;;;;;;-2.37;77.37988;96755.13;;;;
2020/01/23 01:23:11;;;;;;;49.05;18.3;;;;;;;-2.37;77.37988;96755.13;;;;
2020/01/23 01:24:34;;;;;;;49.05;18.3;;;;;;;-2.37;77.37988;96755.13;;;;
2020/01/23 01:25:46;;;;;;;49.05;18.3;;;;;;;-2.37;77.37988;96755.13;;;;
2020/01/23 01:32:00;;;;;;;40.60001;14.9;;;;;;;-2.31;76.99609;96759.09;;;;
2020/01/23 01:33:04;;;;;;;40.60001;14.9;;;;;;;-2.31;76.99609;96759.09;;;;
2020/01/23 01:34:04;;;;;;;40.60001;14.9;;;;;;;-2.31;76.99609;96759.09;;;;
2020/01/23 01:35:07;;;;;;;40.60001;14.9;;;;;;;-2.31;76.99609;96759.09;;;;
2020/01/23 01:36:11;;;;;;;40.60001;14.9;;;;;;;-2.31;76.99609;96759.09;;;;
2020/01/23 01:37:16;;;;;;;40.60001;14.9;;;;;;;-2.31;76.99609;96759.09;;;;
2020/01/23 01:38:18;;;;;;;40.60001;14.9;;;;;;;-2.31;76.99609;96759.09;;;;
2020/01/23 01:39:23;;;;;;;40.60001;14.9;;;;;;;-2.31;76.99609;96759.09;;;;
2020/01/23 01:41:34;;;;;;;41.9;15.1;;;;;;;-2.3;76.88379;96757.73;;;;
2020/01/23 01:42:36;;;;;;;41.9;15.1;;;;;;;-2.3;76.88379;96757.73;;;;
2020/01/23 01:43:37;;;;;;;41.9;15.1;;;;;;;-2.3;76.88379;96757.73;;;;
2020/01/23 01:44:46;;;;;;;41.9;15.1;;;;;;;-2.3;76.88379;96757.73;;;;
2020/01/23 01:45:48;;;;;;;41.9;15.1;;;;;;;-2.3;76.88379;96757.73;;;;
2020/01/23 01:46:58;;;;;;;41.9;15.1;;;;;;;-2.3;76.88379;96757.73;;;;
2020/01/23 01:47:58;;;;;;;41.9;15.1;;;;;;;-2.3;76.88379;96757.73;;;;
2020/01/23 01:48:59;;;;;;;41.9;15.1;;;;;;;-2.3;76.88379;96757.73;;;;
2020/01/23 01:50:02;;;;;;;41.9;15.1;;;;;;;-2.3;76.88379;96757.73;;;;
2020/01/23 01:51:16;;;;;;;38.5;15.4;;;;;;;-2.4;76.92871;96747.03;;;;
2020/01/23 01:52:21;;;;;;;38.5;15.4;;;;;;;-2.4;76.92871;96747.03;;;;
2020/01/23 01:53:21;;;;;;;38.5;15.4;;;;;;;-2.4;76.92871;96747.03;;;;
2020/01/23 01:54:22;;;;;;;38.5;15.4;;;;;;;-2.4;76.92871;96747.03;;;;
2020/01/23 01:55:22;;;;;;;38.5;15.4;;;;;;;-2.4;76.92871;96747.03;;;;
2020/01/23 01:56:27;;;;;;;38.5;15.4;;;;;;;-2.4;76.92871;96747.03;;;;
2020/01/23 01:57:29;;;;;;;38.5;15.4;;;;;;;-2.4;76.92871;96747.03;;;;
2020/01/23 01:58:29;;;;;;;38.5;15.4;;;;;;;-2.4;76.92871;96747.03;;;;
2020/01/23 01:59:30;;;;;;;38.5;15.4;;;;;;;-2.4;76.92871;96747.03;;;;
2020/01/23 02:00:30;;;;;;;38.5;15.4;;;;;;;-2.4;76.92871;96747.03;;;;
2020/01/23 02:03:21;;;;;;;40.75;15;;;;;;;-2.36;76.94629;96744.51;;;;
2020/01/23 02:05:16;;;;;;;40.75;15;;;;;;;-2.36;76.94629;96744.51;;;;
2020/01/23 02:06:21;;;;;;;40.75;15;;;;;;;-2.36;76.94629;96744.51;;;;
2020/01/23 02:07:23;;;;;;;40.75;15;;;;;;;-2.36;76.94629;96744.51;;;;
2020/01/23 02:08:30;;;;;;;40.75;15;;;;;;;-2.36;76.94629;96744.51;;;;
2020/01/23 02:09:50;;;;;;;40.75;15;;;;;;;-2.36;76.94629;96744.51;;;;
2020/01/23 02:10:58;;;;;;;40.75;15;;;;;;;-2.36;76.94629;96744.51;;;;
2020/01/23 02:11:58;;;;;;;38.8;15.2;;;;;;;-2.39;76.81543;96734.16;;;;
2020/01/23 02:13:01;;;;;;;38.8;15.2;;;;;;;-2.39;76.81543;96734.16;;;;
2020/01/23 02:14:09;;;;;;;38.8;15.2;;;;;;;-2.39;76.81543;96734.16;;;;
2020/01/23 02:15:10;;;;;;;38.8;15.2;;;;;;;-2.39;76.81543;96734.16;;;;
2020/01/23 02:16:12;;;;;;;38.8;15.2;;;;;;;-2.39;76.81543;96734.16;;;;
2020/01/23 02:17:17;;;;;;;38.8;15.2;;;;;;;-2.39;76.81543;96734.16;;;;
2020/01/23 02:19:01;;;;;;;38.8;15.2;;;;;;;-2.39;76.81543;96734.16;;;;
2020/01/23 02:20:05;;;;;;;38.8;15.2;;;;;;;-2.39;76.81543;96734.16;;;;
2020/01/23 02:21:24;;;;;;;38.8;15.2;;;;;;;-2.39;76.81543;96734.16;;;;
2020/01/23 02:22:30;;;;;;;41.35;15.7;;;;;;;-2.37;76.99512;96727.42;;;;
2020/01/23 02:23:31;;;;;;;41.35;15.7;;;;;;;-2.37;76.99512;96727.42;;;;
2020/01/23 02:24:32;;;;;;;41.35;15.7;;;;;;;-2.37;76.99512;96727.42;;;;
2020/01/23 02:25:36;;;;;;;41.35;15.7;;;;;;;-2.37;76.99512;96727.42;;;;
2020/01/23 02:27:05;;;;;;;41.35;15.7;;;;;;;-2.37;76.99512;96727.42;;;;
2020/01/23 02:28:08;;;;;;;41.35;15.7;;;;;;;-2.37;76.99512;96727.42;;;;
2020/01/23 02:29:08;;;;;;;41.35;15.7;;;;;;;-2.37;76.99512;96727.42;;;;
2020/01/23 02:30:08;;;;;;;41.35;15.7;;;;;;;-2.37;76.99512;96727.42;;;;
2020/01/23 02:31:13;;;;;;;41.35;15.7;;;;;;;-2.37;76.99512;96727.42;;;;
2020/01/23 02:32:16;;;;;;;41.35;15.7;;;;;;;-2.37;76.99512;96727.42;;;;
2020/01/23 02:33:38;;;;;;;38.3;14.8;;;;;;;-2.44;76.96191;96721.36;;;;
2020/01/23 02:34:40;;;;;;;38.3;14.8;;;;;;;-2.44;76.96191;96721.36;;;;
2020/01/23 02:35:47;;;;;;;38.3;14.8;;;;;;;-2.44;76.96191;96721.36;;;;
2020/01/23 02:36:48;;;;;;;38.3;14.8;;;;;;;-2.44;76.96191;96721.36;;;;
2020/01/23 02:37:49;;;;;;;38.3;14.8;;;;;;;-2.44;76.96191;96721.36;;;;
2020/01/23 02:38:49;;;;;;;38.3;14.8;;;;;;;-2.44;76.96191;96721.36;;;;
2020/01/23 02:39:57;;;;;;;38.3;14.8;;;;;;;-2.44;76.96191;96721.36;;;;
2020/01/23 02:40:58;;;;;;;38.3;14.8;;;;;;;-2.44;76.96191;96721.36;;;;
2020/01/23 02:42:14;;;;;;;38.3;14.8;;;;;;;-2.44;76.96191;96721.36;;;;
2020/01/23 02:43:22;;;;;;;38.35;14.8;;;;;;;-2.42;77.32031;96701.36;;;;
2020/01/23 02:44:23;;;;;;;38.35;14.8;;;;;;;-2.42;77.32031;96701.36;;;;
2020/01/23 02:45:23;;;;;;;38.35;14.8;;;;;;;-2.42;77.32031;96701.36;;;;
2020/01/23 02:46:24;;;;;;;38.35;14.8;;;;;;;-2.42;77.32031;96701.36;;;;
2020/01/23 02:47:34;;;;;;;38.35;14.8;;;;;;;-2.42;77.32031;96701.36;;;;
2020/01/23 02:48:34;;;;;;;38.35;14.8;;;;;;;-2.42;77.32031;96701.36;;;;
2020/01/23 02:49:37;;;;;;;38.35;14.8;;;;;;;-2.42;77.32031;96701.36;;;;
2020/01/23 02:50:37;;;;;;;38.35;14.8;;;;;;;-2.42;77.32031;96701.36;;;;
2020/01/23 02:51:38;;;;;;;38.35;14.8;;;;;;;-2.42;77.32031;96701.36;;;;
2020/01/23 02:52:38;;;;;;;38.35;14.8;;;;;;;-2.42;77.32031;96701.36;;;;
2020/01/23 02:53:47;;;;;;;38.35;14.8;;;;;;;-2.42;77.32031;96701.36;;;;
2020/01/23 02:54:48;;;;;;;40.45;15.55;;;;;;;-2.47;77.34277;96686.77;;;;
2020/01/23 02:55:49;;;;;;;40.45;15.55;;;;;;;-2.47;77.34277;96686.77;;;;
2020/01/23 02:56:49;;;;;;;40.45;15.55;;;;;;;-2.47;77.34277;96686.77;;;;
2020/01/23 02:57:50;;;;;;;40.45;15.55;;;;;;;-2.47;77.34277;96686.77;;;;
2020/01/23 02:58:50;;;;;;;40.45;15.55;;;;;;;-2.47;77.34277;96686.77;;;;
2020/01/23 02:59:51;;;;;;;40.45;15.55;;;;;;;-2.47;77.34277;96686.77;;;;
2020/01/23 03:00:51;;;;;;;40.45;15.55;;;;;;;-2.47;77.34277;96686.77;;;;
2020/01/23 03:08:20;;;;;;;40;15.4;;;;;;;-2.41;77.40234;96670.9;;;;
2020/01/23 03:09:23;;;;;;;40;15.4;;;;;;;-2.41;77.40234;96670.9;;;;
2020/01/23 03:10:36;;;;;;;40;15.4;;;;;;;-2.41;77.40234;96670.9;;;;
2020/01/23 03:11:41;;;;;;;40;15.4;;;;;;;-2.41;77.40234;96670.9;;;;
2020/01/23 03:12:42;;;;;;;40;15.4;;;;;;;-2.41;77.40234;96670.9;;;;
2020/01/23 03:13:43;;;;;;;40;15.4;;;;;;;-2.41;77.40234;96670.9;;;;
2020/01/23 03:14:43;;;;;;;40;15.4;;;;;;;-2.41;77.40234;96670.9;;;;
2020/01/23 03:15:44;;;;;;;39.9;14.9;;;;;;;-2.45;77.32324;96659.3;;;;
2020/01/23 03:16:47;;;;;;;39.9;14.9;;;;;;;-2.45;77.32324;96659.3;;;;
2020/01/23 03:17:48;;;;;;;39.9;14.9;;;;;;;-2.45;77.32324;96659.3;;;;
2020/01/23 03:18:48;;;;;;;39.9;14.9;;;;;;;-2.45;77.32324;96659.3;;;;
2020/01/23 03:19:49;;;;;;;39.9;14.9;;;;;;;-2.45;77.32324;96659.3;;;;
2020/01/23 03:21:00;;;;;;;39.9;14.9;;;;;;;-2.45;77.32324;96659.3;;;;
2020/01/23 03:22:01;;;;;;;39.9;14.9;;;;;;;-2.45;77.32324;96659.3;;;;
2020/01/23 03:23:01;;;;;;;39.9;14.9;;;;;;;-2.45;77.32324;96659.3;;;;
2020/01/23 03:24:02;;;;;;;39.9;14.9;;;;;;;-2.45;77.32324;96659.3;;;;
2020/01/23 03:25:05;;;;;;;39.9;14.9;;;;;;;-2.45;77.32324;96659.3;;;;
2020/01/23 03:27:10;;;;;;;40.80001;15.4;;;;;;;-2.4;77.65527;96661.1;;;;
2020/01/23 03:28:10;;;;;;;40.80001;15.4;;;;;;;-2.4;77.65527;96661.1;;;;
2020/01/23 03:29:12;;;;;;;40.80001;15.4;;;;;;;-2.4;77.65527;96661.1;;;;
2020/01/23 03:30:12;;;;;;;40.80001;15.4;;;;;;;-2.4;77.65527;96661.1;;;;
2020/01/23 03:31:13;;;;;;;40.80001;15.4;;;;;;;-2.4;77.65527;96661.1;;;;
2020/01/23 03:32:13;;;;;;;40.80001;15.4;;;;;;;-2.4;77.65527;96661.1;;;;
2020/01/23 03:33:14;;;;;;;40.80001;15.4;;;;;;;-2.4;77.65527;96661.1;;;;
2020/01/23 03:34:14;;;;;;;40.80001;15.4;;;;;;;-2.4;77.65527;96661.1;;;;
2020/01/23 03:35:15;;;;;;;40.80001;15.4;;;;;;;-2.4;77.65527;96661.1;;;;
2020/01/23 03:36:15;;;;;;;41.3;15.85;;;;;;;-2.41;77.4043;96657.17;;;;
2020/01/23 03:37:16;;;;;;;41.3;15.85;;;;;;;-2.41;77.4043;96657.17;;;;
2020/01/23 03:38:17;;;;;;;41.3;15.85;;;;;;;-2.41;77.4043;96657.17;;;;
2020/01/23 03:39:17;;;;;;;41.3;15.85;;;;;;;-2.41;77.4043;96657.17;;;;
2020/01/23 03:40:29;;;;;;;41.3;15.85;;;;;;;-2.41;77.4043;96657.17;;;;
2020/01/23 03:41:30;;;;;;;41.3;15.85;;;;;;;-2.41;77.4043;96657.17;;;;
2020/01/23 03:42:31;;;;;;;41.3;15.85;;;;;;;-2.41;77.4043;96657.17;;;;
2020/01/23 03:43:33;;;;;;;41.3;15.85;;;;;;;-2.41;77.4043;96657.17;;;;
2020/01/23 03:44:34;;;;;;;41.3;15.85;;;;;;;-2.41;77.4043;96657.17;;;;
2020/01/23 03:45:42;;;;;;;41.3;15.85;;;;;;;-2.41;77.4043;96657.17;;;;
2020/01/23 03:47:54;;;;;;;41.3;15.85;;;;;;;-2.41;77.4043;96657.17;;;;
2020/01/23 03:48:55;;;;;;;45.35;17.7;;;;;;;-2.35;77.51855;96658.01;;;;
2020/01/23 03:49:56;;;;;;;45.35;17.7;;;;;;;-2.35;77.51855;96658.01;;;;
2020/01/23 03:50:57;;;;;;;45.35;17.7;;;;;;;-2.35;77.51855;96658.01;;;;
2020/01/23 03:51:58;;;;;;;45.35;17.7;;;;;;;-2.35;77.51855;96658.01;;;;
2020/01/23 03:52:59;;;;;;;45.35;17.7;;;;;;;-2.35;77.51855;96658.01;;;;
2020/01/23 03:53:59;;;;;;;45.35;17.7;;;;;;;-2.35;77.51855;96658.01;;;;
2020/01/23 03:55:00;;;;;;;45.35;17.7;;;;;;;-2.35;77.51855;96658.01;;;;
2020/01/23 03:56:01;;;;;;;45.35;17.7;;;;;;;-2.35;77.51855;96658.01;;;;
2020/01/23 03:57:02;;;;;;;45.35;17.7;;;;;;;-2.35;77.51855;96658.01;;;;
2020/01/23 03:58:02;;;;;;;44.40001;16.9;;;;;;;-2.35;77.36328;96659.33;;;;
2020/01/23 03:59:02;;;;;;;44.40001;16.9;;;;;;;-2.35;77.36328;96659.33;;;;
2020/01/23 04:00:03;;;;;;;44.40001;16.9;;;;;;;-2.35;77.36328;96659.33;;;;
2020/01/23 04:01:04;;;;;;;44.40001;16.9;;;;;;;-2.35;77.36328;96659.33;;;;
2020/01/23 04:02:05;;;;;;;44.40001;16.9;;;;;;;-2.35;77.36328;96659.33;;;;
2020/01/23 04:03:06;;;;;;;44.40001;16.9;;;;;;;-2.35;77.36328;96659.33;;;;
2020/01/23 04:04:06;;;;;;;44.40001;16.9;;;;;;;-2.35;77.36328;96659.33;;;;
2020/01/23 04:05:07;;;;;;;44.40001;16.9;;;;;;;-2.35;77.36328;96659.33;;;;
2020/01/23 04:06:08;;;;;;;44.40001;16.9;;;;;;;-2.35;77.36328;96659.33;;;;
2020/01/23 04:07:08;;;;;;;44.40001;16.9;;;;;;;-2.35;77.36328;96659.33;;;;
2020/01/23 04:08:09;;;;;;;45.09999;17.2;;;;;;;-2.31;77.40918;96647.6;;;;
2020/01/23 04:09:10;;;;;;;45.09999;17.2;;;;;;;-2.31;77.40918;96647.6;;;;
2020/01/23 04:10:11;;;;;;;45.09999;17.2;;;;;;;-2.31;77.40918;96647.6;;;;
2020/01/23 04:11:11;;;;;;;45.09999;17.2;;;;;;;-2.31;77.40918;96647.6;;;;
2020/01/23 04:12:12;;;;;;;45.09999;17.2;;;;;;;-2.31;77.40918;96647.6;;;;
2020/01/23 04:13:13;;;;;;;45.09999;17.2;;;;;;;-2.31;77.40918;96647.6;;;;
2020/01/23 04:14:13;;;;;;;45.09999;17.2;;;;;;;-2.31;77.40918;96647.6;;;;
2020/01/23 04:15:14;;;;;;;45.09999;17.2;;;;;;;-2.31;77.40918;96647.6;;;;
2020/01/23 04:16:22;;;;;;;45.09999;17.2;;;;;;;-2.31;77.40918;96647.6;;;;
2020/01/23 04:17:28;;;;;;;45.09999;17.2;;;;;;;-2.31;77.40918;96647.6;;;;
2020/01/23 04:18:47;;;;;;;45.09999;17.2;;;;;;;-2.31;77.40918;96647.6;;;;
2020/01/23 04:19:50;;;;;;;47.60001;18.8;;;;;;;-2.38;77.38867;96623.89;;;;
2020/01/23 04:20:50;;;;;;;47.60001;18.8;;;;;;;-2.38;77.38867;96623.89;;;;
2020/01/23 04:21:51;;;;;;;47.60001;18.8;;;;;;;-2.38;77.38867;96623.89;;;;
2020/01/23 04:22:52;;;;;;;47.60001;18.8;;;;;;;-2.38;77.38867;96623.89;;;;
2020/01/23 04:23:52;;;;;;;47.60001;18.8;;;;;;;-2.38;77.38867;96623.89;;;;
2020/01/23 04:24:53;;;;;;;47.60001;18.8;;;;;;;-2.38;77.38867;96623.89;;;;
2020/01/23 04:25:53;;;;;;;47.60001;18.8;;;;;;;-2.38;77.38867;96623.89;;;;
2020/01/23 04:26:53;;;;;;;47.60001;18.8;;;;;;;-2.38;77.38867;96623.89;;;;
2020/01/23 04:27:54;;;;;;;47.60001;18.8;;;;;;;-2.38;77.38867;96623.89;;;;
2020/01/23 04:28:54;;;;;;;47.60001;18.8;;;;;;;-2.38;77.38867;96623.89;;;;
2020/01/23 04:29:56;;;;;;;53.94999;18.75;;;;;;;-2.36;77.67188;96619.3;;;;
2020/01/23 04:30:57;;;;;;;53.94999;18.75;;;;;;;-2.36;77.67188;96619.3;;;;
2020/01/23 04:32:01;;;;;;;53.94999;18.75;;;;;;;-2.36;77.67188;96619.3;;;;
2020/01/23 04:33:09;;;;;;;53.94999;18.75;;;;;;;-2.36;77.67188;96619.3;;;;
2020/01/23 04:34:11;;;;;;;53.94999;18.75;;;;;;;-2.36;77.67188;96619.3;;;;
2020/01/23 04:35:13;;;;;;;53.94999;18.75;;;;;;;-2.36;77.67188;96619.3;;;;
2020/01/23 04:36:16;;;;;;;53.94999;18.75;;;;;;;-2.36;77.67188;96619.3;;;;
2020/01/23 04:37:17;;;;;;;53.94999;18.75;;;;;;;-2.36;77.67188;96619.3;;;;
2020/01/23 04:38:17;;;;;;;53.94999;18.75;;;;;;;-2.36;77.67188;96619.3;;;;
2020/01/23 04:39:18;;;;;;;53.94999;18.75;;;;;;;-2.36;77.67188;96619.3;;;;
2020/01/23 04:40:18;;;;;;;55.3;20.9;;;;;;;-2.41;77.90039;96612.3;;;;
2020/01/23 04:41:19;;;;;;;55.3;20.9;;;;;;;-2.41;77.90039;96612.3;;;;
2020/01/23 04:42:19;;;;;;;55.3;20.9;;;;;;;-2.41;77.90039;96612.3;;;;
2020/01/23 04:43:20;;;;;;;55.3;20.9;;;;;;;-2.41;77.90039;96612.3;;;;
2020/01/23 04:44:20;;;;;;;55.3;20.9;;;;;;;-2.41;77.90039;96612.3;;;;
2020/01/23 04:45:21;;;;;;;55.3;20.9;;;;;;;-2.41;77.90039;96612.3;;;;
2020/01/23 04:46:21;;;;;;;55.3;20.9;;;;;;;-2.41;77.90039;96612.3;;;;
2020/01/23 04:47:22;;;;;;;55.3;20.9;;;;;;;-2.41;77.90039;96612.3;;;;
2020/01/23 04:48:22;;;;;;;55.3;20.9;;;;;;;-2.41;77.90039;96612.3;;;;
2020/01/23 04:49:23;;;;;;;55.3;20.9;;;;;;;-2.41;77.90039;96612.3;;;;
2020/01/23 04:50:23;;;;;;;55.3;20.9;;;;;;;-2.41;77.90039;96612.3;;;;
2020/01/23 04:51:23;;;;;;;51.95;18.65;;;;;;;-2.34;78.11133;96603.75;;;;
2020/01/23 04:52:24;;;;;;;51.95;18.65;;;;;;;-2.34;78.11133;96603.75;;;;
2020/01/23 04:53:24;;;;;;;51.95;18.65;;;;;;;-2.34;78.11133;96603.75;;;;
2020/01/23 04:54:25;;;;;;;51.95;18.65;;;;;;;-2.34;78.11133;96603.75;;;;
2020/01/23 04:55:25;;;;;;;51.95;18.65;;;;;;;-2.34;78.11133;96603.75;;;;
2020/01/23 04:56:26;;;;;;;51.95;18.65;;;;;;;-2.34;78.11133;96603.75;;;;
2020/01/23 04:57:26;;;;;;;51.95;18.65;;;;;;;-2.34;78.11133;96603.75;;;;
2020/01/23 04:58:27;;;;;;;51.95;18.65;;;;;;;-2.34;78.11133;96603.75;;;;
2020/01/23 04:59:27;;;;;;;51.95;18.65;;;;;;;-2.34;78.11133;96603.75;;;;
2020/01/23 05:00:28;;;;;;;51.95;18.65;;;;;;;-2.34;78.11133;96603.75;;;;
2020/01/23 05:02:08;;;;;;;52.25001;19.8;;;;;;;-2.39;78.07129;96591.78;;;;
2020/01/23 05:03:09;;;;;;;52.25001;19.8;;;;;;;-2.39;78.07129;96591.78;;;;
2020/01/23 05:04:09;;;;;;;52.25001;19.8;;;;;;;-2.39;78.07129;96591.78;;;;
2020/01/23 05:05:10;;;;;;;52.25001;19.8;;;;;;;-2.39;78.07129;96591.78;;;;
2020/01/23 05:06:10;;;;;;;52.25001;19.8;;;;;;;-2.39;78.07129;96591.78;;;;
2020/01/23 05:07:11;;;;;;;52.25001;19.8;;;;;;;-2.39;78.07129;96591.78;;;;
2020/01/23 05:08:12;;;;;;;52.25001;19.8;;;;;;;-2.39;78.07129;96591.78;;;;
2020/01/23 05:09:13;;;;;;;52.25001;19.8;;;;;;;-2.39;78.07129;96591.78;;;;
2020/01/23 05:10:13;;;;;;;52.25001;19.8;;;;;;;-2.39;78.07129;96591.78;;;;
2020/01/23 05:11:14;;;;;;;52.25001;19.8;;;;;;;-2.39;78.07129;96591.78;;;;
2020/01/23 05:12:15;;;;;;;53.1;21.15;;;;;;;-2.32;78.42383;96598.33;;;;
2020/01/23 05:13:15;;;;;;;53.1;21.15;;;;;;;-2.32;78.42383;96598.33;;;;
2020/01/23 05:14:16;;;;;;;53.1;21.15;;;;;;;-2.32;78.42383;96598.33;;;;
2020/01/23 05:15:17;;;;;;;53.1;21.15;;;;;;;-2.32;78.42383;96598.33;;;;
2020/01/23 05:16:17;;;;;;;53.1;21.15;;;;;;;-2.32;78.42383;96598.33;;;;
2020/01/23 05:17:18;;;;;;;53.1;21.15;;;;;;;-2.32;78.42383;96598.33;;;;
2020/01/23 05:18:18;;;;;;;53.1;21.15;;;;;;;-2.32;78.42383;96598.33;;;;
2020/01/23 05:19:19;;;;;;;53.1;21.15;;;;;;;-2.32;78.42383;96598.33;;;;
2020/01/23 05:20:19;;;;;;;53.1;21.15;;;;;;;-2.32;78.42383;96598.33;;;;
2020/01/23 05:21:20;;;;;;;53.1;21.15;;;;;;;-2.32;78.42383;96598.33;;;;
2020/01/23 05:22:20;;;;;;;57.84999;21.55;;;;;;;-2.38;78.37207;96604.53;;;;
2020/01/23 05:23:21;;;;;;;57.84999;21.55;;;;;;;-2.38;78.37207;96604.53;;;;
2020/01/23 05:24:22;;;;;;;57.84999;21.55;;;;;;;-2.38;78.37207;96604.53;;;;
2020/01/23 05:25:23;;;;;;;57.84999;21.55;;;;;;;-2.38;78.37207;96604.53;;;;
2020/01/23 05:26:24;;;;;;;57.84999;21.55;;;;;;;-2.38;78.37207;96604.53;;;;
2020/01/23 05:27:24;;;;;;;57.84999;21.55;;;;;;;-2.38;78.37207;96604.53;;;;
2020/01/23 05:28:25;;;;;;;57.84999;21.55;;;;;;;-2.38;78.37207;96604.53;;;;
2020/01/23 05:29:26;;;;;;;57.84999;21.55;;;;;;;-2.38;78.37207;96604.53;;;;
2020/01/23 05:30:26;;;;;;;57.84999;21.55;;;;;;;-2.38;78.37207;96604.53;;;;
2020/01/23 05:31:27;;;;;;;57.84999;21.55;;;;;;;-2.38;78.37207;96604.53;;;;
2020/01/23 05:32:28;;;;;;;57.84999;21.55;;;;;;;-2.38;78.37207;96604.53;;;;
2020/01/23 05:33:28;;;;;;;50.35;20.8;;;;;;;-2.39;78.96094;96588.72;;;;
2020/01/23 05:34:28;;;;;;;50.35;20.8;;;;;;;-2.39;78.96094;96588.72;;;;
2020/01/23 05:35:29;;;;;;;50.35;20.8;;;;;;;-2.39;78.96094;96588.72;;;;
2020/01/23 05:36:31;;;;;;;50.35;20.8;;;;;;;-2.39;78.96094;96588.72;;;;
2020/01/23 05:37:31;;;;;;;50.35;20.8;;;;;;;-2.39;78.96094;96588.72;;;;
2020/01/23 05:38:32;;;;;;;50.35;20.8;;;;;;;-2.39;78.96094;96588.72;;;;
2020/01/23 05:39:33;;;;;;;50.35;20.8;;;;;;;-2.39;78.96094;96588.72;;;;
2020/01/23 05:40:33;;;;;;;50.35;20.8;;;;;;;-2.39;78.96094;96588.72;;;;
2020/01/23 05:41:34;;;;;;;50.35;20.8;;;;;;;-2.39;78.96094;96588.72;;;;
2020/01/23 05:42:34;;;;;;;50.35;20.8;;;;;;;-2.39;78.96094;96588.72;;;;
2020/01/23 05:43:35;;;;;;;53.35;20;;;;;;;-2.44;78.90039;96584.77;;;;
2020/01/23 05:44:35;;;;;;;53.35;20;;;;;;;-2.44;78.90039;96584.77;;;;
2020/01/23 05:45:36;;;;;;;53.35;20;;;;;;;-2.44;78.90039;96584.77;;;;
2020/01/23 05:46:36;;;;;;;53.35;20;;;;;;;-2.44;78.90039;96584.77;;;;
2020/01/23 05:47:37;;;;;;;53.35;20;;;;;;;-2.44;78.90039;96584.77;;;;
2020/01/23 05:48:37;;;;;;;53.35;20;;;;;;;-2.44;78.90039;96584.77;;;;
2020/01/23 05:49:38;;;;;;;53.35;20;;;;;;;-2.44;78.90039;96584.77;;;;
2020/01/23 05:50:38;;;;;;;53.35;20;;;;;;;-2.44;78.90039;96584.77;;;;
2020/01/23 05:51:39;;;;;;;53.35;20;;;;;;;-2.44;78.90039;96584.77;;;;
2020/01/23 05:52:39;;;;;;;53.35;20;;;;;;;-2.44;78.90039;96584.77;;;;
2020/01/23 05:53:39;;;;;;;53.35;20;;;;;;;-2.44;78.90039;96584.77;;;;
2020/01/23 05:54:41;;;;;;;55.65;20.9;;;;;;;-2.43;79.33789;96587.31;;;;
2020/01/23 05:55:42;;;;;;;55.65;20.9;;;;;;;-2.43;79.33789;96587.31;;;;
2020/01/23 05:56:44;;;;;;;55.65;20.9;;;;;;;-2.43;79.33789;96587.31;;;;
2020/01/23 05:57:45;;;;;;;55.65;20.9;;;;;;;-2.43;79.33789;96587.31;;;;
2020/01/23 05:58:45;;;;;;;55.65;20.9;;;;;;;-2.43;79.33789;96587.31;;;;
2020/01/23 05:59:46;;;;;;;55.65;20.9;;;;;;;-2.43;79.33789;96587.31;;;;
2020/01/23 06:00:47;;;;;;;55.65;20.9;;;;;;;-2.43;79.33789;96587.31;;;;
2020/01/23 06:01:48;;;;;;;55.65;20.9;;;;;;;-2.43;79.33789;96587.31;;;;
2020/01/23 06:02:48;;;;;;;55.65;20.9;;;;;;;-2.43;79.33789;96587.31;;;;
2020/01/23 06:03:49;;;;;;;55.65;20.9;;;;;;;-2.43;79.33789;96587.31;;;;
2020/01/23 06:04:49;;;;;;;53.45;19.6;;;;;;;-2.47;79.52734;96578.85;;;;
2020/01/23 06:05:50;;;;;;;53.45;19.6;;;;;;;-2.47;79.52734;96578.85;;;;
2020/01/23 06:06:50;;;;;;;53.45;19.6;;;;;;;-2.47;79.52734;96578.85;;;;
2020/01/23 06:07:51;;;;;;;53.45;19.6;;;;;;;-2.47;79.52734;96578.85;;;;
2020/01/23 06:08:51;;;;;;;53.45;19.6;;;;;;;-2.47;79.52734;96578.85;;;;
2020/01/23 06:09:51;;;;;;;53.45;19.6;;;;;;;-2.47;79.52734;96578.85;;;;
2020/01/23 06:10:52;;;;;;;53.45;19.6;;;;;;;-2.47;79.52734;96578.85;;;;
2020/01/23 06:12:08;;;;;;;53.45;19.6;;;;;;;-2.47;79.52734;96578.85;;;;
2020/01/23 06:13:08;;;;;;;53.45;19.6;;;;;;;-2.47;79.52734;96578.85;;;;
2020/01/23 06:14:10;;;;;;;53.45;19.6;;;;;;;-2.47;79.52734;96578.85;;;;
2020/01/23 06:15:12;;;;;;;53.45;19.6;;;;;;;-2.47;79.52734;96578.85;;;;
2020/01/23 06:16:13;;;;;;;57.2;20.95;;;;;;;-2.44;79.75;96582.08;;;;
2020/01/23 06:17:14;;;;;;;57.2;20.95;;;;;;;-2.44;79.75;96582.08;;;;
2020/01/23 06:18:14;;;;;;;57.2;20.95;;;;;;;-2.44;79.75;96582.08;;;;
2020/01/23 06:19:15;;;;;;;57.2;20.95;;;;;;;-2.44;79.75;96582.08;;;;
2020/01/23 06:20:15;;;;;;;57.2;20.95;;;;;;;-2.44;79.75;96582.08;;;;
2020/01/23 06:21:16;;;;;;;57.2;20.95;;;;;;;-2.44;79.75;96582.08;;;;
2020/01/23 06:22:16;;;;;;;57.2;20.95;;;;;;;-2.44;79.75;96582.08;;;;
2020/01/23 06:23:17;;;;;;;57.2;20.95;;;;;;;-2.44;79.75;96582.08;;;;
2020/01/23 06:24:17;;;;;;;57.2;20.95;;;;;;;-2.44;79.75;96582.08;;;;